createdAt,value
2022-12-18T00:01:28.646Z,100.00
2022-12-18T00:03:56.041Z,100.00
2022-12-18T00:06:23.650Z,100.00
2022-12-18T00:08:50.333Z,100.00
2022-12-18T00:11:18.641Z,100.00
2022-12-18T00:13:45.351Z,100.00
2022-12-18T00:16:13.324Z,100.00
2022-12-18T00:18:40.455Z,100.00
2022-12-18T00:21:08.108Z,100.00
2022-12-18T00:23:35.821Z,100.00
2022-12-18T00:26:03.208Z,100.00
2022-12-18T00:28:29.608Z,100.00
2022-12-18T00:31:03.893Z,100.00
2022-12-18T00:33:30.539Z,100.00
2022-12-18T00:36:01.502Z,100.00
2022-12-18T00:38:28.062Z,100.00
2022-12-18T00:40:54.578Z,100.00
2022-12-18T00:43:21.027Z,100.00
2022-12-18T00:45:47.617Z,100.00
2022-12-18T00:48:14.052Z,100.00
2022-12-18T00:50:40.496Z,100.00
2022-12-18T00:53:07.275Z,100.00
2022-12-18T00:55:33.657Z,100.00
2022-12-18T00:58:00.045Z,100.00
2022-12-18T01:00:26.526Z,100.00
2022-12-18T01:02:53.057Z,100.00
2022-12-18T01:05:19.528Z,100.00
2022-12-18T01:07:45.928Z,100.00
2022-12-18T01:10:13.203Z,100.00
2022-12-18T01:12:39.762Z,100.00
2022-12-18T01:15:07.089Z,100.00
2022-12-18T01:17:33.616Z,100.00
2022-12-18T01:20:00.074Z,100.00
2022-12-18T01:22:26.474Z,100.00
2022-12-18T01:24:52.852Z,100.00
2022-12-18T01:27:19.301Z,100.00
2022-12-18T01:29:45.822Z,100.00
2022-12-18T01:32:12.298Z,100.00
2022-12-18T01:34:38.863Z,100.00
2022-12-18T01:37:05.709Z,100.00
2022-12-18T01:39:33.073Z,100.00
2022-12-18T01:42:15.798Z,100.00
2022-12-18T01:44:57.579Z,100.00
2022-12-18T01:47:25.807Z,100.00
2022-12-18T01:49:52.730Z,100.00
2022-12-18T01:52:19.975Z,100.00
2022-12-18T01:54:47.151Z,100.00
2022-12-18T01:57:13.845Z,100.00
2022-12-18T01:59:42.007Z,100.00
2022-12-18T02:02:08.805Z,100.00
2022-12-18T02:04:35.509Z,100.00
2022-12-18T02:07:20.645Z,100.00
2022-12-18T02:09:59.104Z,100.00
2022-12-18T02:12:27.542Z,100.00
2022-12-18T02:14:53.996Z,100.00
2022-12-18T02:17:22.460Z,100.00
2022-12-18T02:20:07.727Z,100.00
2022-12-18T02:22:49.333Z,100.00
2022-12-18T02:25:34.426Z,100.00
2022-12-18T02:28:02.663Z,100.00
2022-12-18T02:30:32.704Z,100.00
2022-12-18T02:33:05.109Z,100.00
2022-12-18T02:35:34.168Z,100.00
2022-12-18T02:38:01.107Z,100.00
2022-12-18T02:40:28.577Z,100.00
2022-12-18T02:42:55.185Z,100.00
2022-12-18T02:45:21.632Z,100.00
2022-12-18T02:47:50.544Z,100.00
2022-12-18T02:50:31.669Z,100.00
2022-12-18T02:53:23.177Z,100.00
2022-12-18T02:55:52.608Z,100.00
2022-12-18T02:58:28.665Z,100.00
2022-12-18T03:01:00.505Z,100.00
2022-12-18T03:03:33.693Z,100.00
2022-12-18T03:06:03.004Z,100.00
2022-12-18T03:08:31.180Z,100.00
2022-12-18T03:11:03.070Z,100.00
2022-12-18T03:13:33.316Z,100.00
2022-12-18T03:16:00.700Z,100.00
2022-12-18T03:18:30.803Z,100.00
2022-12-18T03:20:59.958Z,100.00
2022-12-18T03:23:28.833Z,100.00
2022-12-18T03:26:01.947Z,100.00
2022-12-18T03:28:35.401Z,100.00
2022-12-18T03:31:05.122Z,100.00
2022-12-18T03:33:51.802Z,100.00
2022-12-18T03:36:18.471Z,100.00
2022-12-18T03:38:47.826Z,100.00
2022-12-18T03:41:19.043Z,100.00
2022-12-18T03:43:45.403Z,100.00
2022-12-18T03:46:18.463Z,100.00
2022-12-18T03:48:48.004Z,100.00
2022-12-18T03:51:17.894Z,100.00
2022-12-18T03:54:04.533Z,100.00
2022-12-18T03:56:32.814Z,100.00
2022-12-18T03:59:00.365Z,100.00
2022-12-18T04:01:30.715Z,100.00
2022-12-18T04:03:57.923Z,100.00
2022-12-18T04:06:24.519Z,100.00
2022-12-18T04:08:51.318Z,100.00
2022-12-18T04:11:17.854Z,100.00
2022-12-18T04:13:44.379Z,100.00
2022-12-18T04:16:10.905Z,100.00
2022-12-18T04:18:38.394Z,100.00
2022-12-18T04:21:04.857Z,100.00
2022-12-18T04:23:31.270Z,100.00
2022-12-18T04:25:57.833Z,100.00
2022-12-18T04:28:24.268Z,100.00
2022-12-18T04:30:53.436Z,100.00
2022-12-18T04:33:20.220Z,100.00
2022-12-18T04:35:46.711Z,100.00
2022-12-18T04:38:13.173Z,100.00
2022-12-18T04:40:39.664Z,100.00
2022-12-18T04:43:07.754Z,100.00
2022-12-18T04:45:34.276Z,100.00
2022-12-18T04:48:01.213Z,100.00
2022-12-18T04:50:27.949Z,100.00
2022-12-18T04:52:54.509Z,100.00
2022-12-18T04:55:20.915Z,100.00
2022-12-18T04:57:47.305Z,100.00
2022-12-18T05:00:13.960Z,100.00
2022-12-18T05:02:40.535Z,100.00
2022-12-18T05:05:07.273Z,100.00
2022-12-18T05:07:33.640Z,100.00
2022-12-18T05:10:00.237Z,100.00
2022-12-18T05:12:26.667Z,100.00
2022-12-18T05:14:53.083Z,100.00
2022-12-18T05:17:19.748Z,100.00
2022-12-18T05:19:46.213Z,100.00
2022-12-18T05:22:12.902Z,100.00
2022-12-18T05:24:39.248Z,100.00
2022-12-18T05:27:05.760Z,100.00
2022-12-18T05:29:32.190Z,100.00
2022-12-18T05:31:58.600Z,100.00
2022-12-18T05:34:25.047Z,99.73
2022-12-18T05:36:51.498Z,99.18
2022-12-18T05:39:18.379Z,100.00
2022-12-18T05:41:44.755Z,100.00
2022-12-18T05:44:11.183Z,100.00
2022-12-18T05:46:37.704Z,100.00
2022-12-18T05:49:04.236Z,100.00
2022-12-18T05:51:30.689Z,100.00
2022-12-18T05:53:57.088Z,100.00
2022-12-18T05:56:23.813Z,100.00
2022-12-18T05:58:52.947Z,100.00
2022-12-18T06:01:20.912Z,100.00
2022-12-18T06:03:47.815Z,100.00
2022-12-18T06:06:19.046Z,100.00
2022-12-18T06:08:46.715Z,100.00
2022-12-18T06:11:13.442Z,100.00
2022-12-18T06:13:40.175Z,100.00
2022-12-18T06:16:07.051Z,100.00
2022-12-18T06:18:34.000Z,100.00
2022-12-18T06:21:00.659Z,100.00
2022-12-18T06:23:27.432Z,100.00
2022-12-18T06:25:53.866Z,100.00
2022-12-18T06:28:20.425Z,100.00
2022-12-18T06:30:48.104Z,100.00
2022-12-18T06:33:15.446Z,100.00
2022-12-18T06:35:42.473Z,100.00
2022-12-18T06:38:09.317Z,100.00
2022-12-18T06:40:37.527Z,100.00
2022-12-18T06:43:03.942Z,100.00
2022-12-18T06:45:30.404Z,100.00
2022-12-18T06:47:56.863Z,100.00
2022-12-18T06:50:23.878Z,100.00
2022-12-18T06:52:50.299Z,100.00
2022-12-18T06:55:16.775Z,100.00
2022-12-18T06:57:43.155Z,100.00
2022-12-18T07:00:09.801Z,100.00
2022-12-18T07:02:36.583Z,100.00
2022-12-18T07:05:07.598Z,100.00
2022-12-18T07:07:37.003Z,100.00
2022-12-18T07:10:03.757Z,100.00
2022-12-18T07:12:30.154Z,100.00
2022-12-18T07:14:56.530Z,100.00
2022-12-18T07:17:22.871Z,100.00
2022-12-18T07:19:49.331Z,100.00
2022-12-18T07:22:15.693Z,100.00
2022-12-18T07:24:42.165Z,100.00
2022-12-18T07:27:08.501Z,100.00
2022-12-18T07:29:35.768Z,100.00
2022-12-18T07:32:02.173Z,100.00
2022-12-18T07:34:28.596Z,100.00
2022-12-18T07:36:55.107Z,100.00
2022-12-18T07:39:21.888Z,100.00
2022-12-18T07:42:08.299Z,100.00
2022-12-18T07:44:34.689Z,100.00
2022-12-18T07:47:01.150Z,100.00
2022-12-18T07:49:27.611Z,100.00
2022-12-18T07:52:02.335Z,100.00
2022-12-18T07:54:28.816Z,100.00
2022-12-18T07:56:55.208Z,100.00
2022-12-18T07:59:24.768Z,100.00
2022-12-18T08:01:53.695Z,100.00
2022-12-18T08:04:20.249Z,100.00
2022-12-18T08:06:48.185Z,100.00
2022-12-18T08:09:15.085Z,100.00
2022-12-18T08:11:45.094Z,100.00
2022-12-18T08:14:11.754Z,100.00
2022-12-18T08:16:38.272Z,100.00
2022-12-18T08:19:05.047Z,100.00
2022-12-18T08:21:32.577Z,100.00
2022-12-18T08:24:00.742Z,100.00
2022-12-18T08:26:28.509Z,100.00
2022-12-18T08:28:58.433Z,100.00
2022-12-18T08:31:26.005Z,100.00
2022-12-18T08:33:53.459Z,100.00
2022-12-18T08:36:23.274Z,100.00
2022-12-18T08:38:51.259Z,100.00
2022-12-18T08:41:18.373Z,100.00
2022-12-18T08:44:03.650Z,100.00
2022-12-18T08:46:34.129Z,100.00
2022-12-18T08:49:00.766Z,100.00
2022-12-18T08:51:27.511Z,100.00
2022-12-18T08:53:54.146Z,100.00
2022-12-18T08:56:23.412Z,100.00
2022-12-18T08:58:52.543Z,100.00
2022-12-18T09:01:19.216Z,100.00
2022-12-18T09:03:49.269Z,100.00
2022-12-18T09:06:19.100Z,100.00
2022-12-18T09:08:50.048Z,100.00
2022-12-18T09:11:29.705Z,100.00
2022-12-18T09:13:59.511Z,100.00
2022-12-18T09:16:31.752Z,100.00
2022-12-18T09:19:02.626Z,100.00
2022-12-18T09:21:35.114Z,100.00
2022-12-18T09:24:03.416Z,100.00
2022-12-18T09:26:30.143Z,100.00
2022-12-18T09:28:57.018Z,100.00
2022-12-18T09:31:24.483Z,100.00
2022-12-18T09:33:51.673Z,100.00
2022-12-18T09:36:18.836Z,100.00
2022-12-18T09:38:45.374Z,100.00
2022-12-18T09:41:17.927Z,100.00
2022-12-18T09:43:47.158Z,100.00
2022-12-18T09:46:18.658Z,100.00
2022-12-18T09:48:47.256Z,100.00
2022-12-18T09:51:21.987Z,100.00
2022-12-18T09:53:51.729Z,100.00
2022-12-18T09:56:20.611Z,100.00
2022-12-18T09:59:05.605Z,100.00
2022-12-18T10:01:41.556Z,100.00
2022-12-18T10:04:10.375Z,100.00
2022-12-18T10:06:41.790Z,100.00
2022-12-18T10:09:23.482Z,100.00
2022-12-18T10:12:19.289Z,100.00
2022-12-18T10:15:01.759Z,100.00
2022-12-18T10:17:40.251Z,100.00
2022-12-18T10:20:25.072Z,98.84
2022-12-18T10:23:00.798Z,99.68
2022-12-18T10:25:39.760Z,100.00
2022-12-18T10:28:16.657Z,100.00
2022-12-18T10:30:44.935Z,100.00
2022-12-18T10:33:13.240Z,99.84
2022-12-18T10:35:42.179Z,99.93
2022-12-18T10:38:28.834Z,100.00
2022-12-18T10:41:02.893Z,100.00
2022-12-18T10:43:31.296Z,100.00
2022-12-18T10:46:11.081Z,100.00
2022-12-18T10:48:42.160Z,100.00
2022-12-18T10:51:12.386Z,100.00
2022-12-18T10:53:44.431Z,100.00
2022-12-18T10:56:11.179Z,100.00
2022-12-18T10:58:38.634Z,100.00
2022-12-18T11:01:07.533Z,100.00
2022-12-18T11:03:40.450Z,100.00
2022-12-18T11:06:27.283Z,100.00
2022-12-18T11:09:06.601Z,100.00
2022-12-18T11:11:38.772Z,100.00
2022-12-18T11:14:16.257Z,100.00
2022-12-18T11:17:23.784Z,100.00
2022-12-18T11:19:40.922Z,100.00
2022-12-18T11:22:22.844Z,100.00
2022-12-18T11:25:29.407Z,100.00
2022-12-18T11:27:41.717Z,100.00
2022-12-18T11:30:26.970Z,100.00
2022-12-18T11:32:56.563Z,100.00
2022-12-18T11:35:38.296Z,100.00
2022-12-18T11:38:20.196Z,100.00
2022-12-18T11:40:48.652Z,100.00
2022-12-18T11:43:22.808Z,100.00
2022-12-18T11:45:49.289Z,100.00
2022-12-18T11:48:18.419Z,100.00
2022-12-18T11:50:44.849Z,100.00
2022-12-18T11:53:14.246Z,100.00
2022-12-18T11:55:49.778Z,100.00
2022-12-18T11:58:19.273Z,100.00
2022-12-18T12:01:02.404Z,100.00
2022-12-18T12:03:43.930Z,100.00
2022-12-18T12:06:23.744Z,100.00
2022-12-18T12:08:59.437Z,100.00
2022-12-18T12:11:38.009Z,100.00
2022-12-18T12:14:04.347Z,100.00
2022-12-18T12:16:33.880Z,100.00
2022-12-18T12:19:20.663Z,100.00
2022-12-18T12:21:52.005Z,100.00
2022-12-18T12:24:37.691Z,100.00
2022-12-18T12:27:17.824Z,100.00
2022-12-18T12:29:54.228Z,100.00
2022-12-18T12:32:31.966Z,100.00
2022-12-18T12:35:09.812Z,100.00
2022-12-18T12:37:36.473Z,100.00
2022-12-18T12:40:15.407Z,100.00
2022-12-18T12:43:16.250Z,100.00
2022-12-18T12:46:02.323Z,100.00
2022-12-18T12:48:47.235Z,100.00
2022-12-18T12:51:17.111Z,100.00
2022-12-18T12:53:44.024Z,100.00
2022-12-18T12:56:12.896Z,100.00
2022-12-18T12:59:14.862Z,100.00
2022-12-18T13:02:10.566Z,100.00
2022-12-18T13:04:42.025Z,100.00
2022-12-18T13:07:15.594Z,100.00
2022-12-18T13:10:00.736Z,100.00
2022-12-18T13:12:46.192Z,100.00
2022-12-18T13:15:20.764Z,100.00
2022-12-18T13:17:47.152Z,100.00
2022-12-18T13:20:15.934Z,100.00
2022-12-18T13:22:43.623Z,100.00
2022-12-18T13:25:29.533Z,100.00
2022-12-18T13:28:00.548Z,100.00
2022-12-18T13:30:33.407Z,100.00
2022-12-18T13:33:15.278Z,100.00
2022-12-18T13:35:51.599Z,100.00
2022-12-18T13:38:22.504Z,100.00
2022-12-18T13:40:48.903Z,100.00
2022-12-18T13:43:21.294Z,100.00
2022-12-18T13:45:59.948Z,100.00
2022-12-18T13:48:27.353Z,100.00
2022-12-18T13:51:14.560Z,100.00
2022-12-18T13:53:50.797Z,100.00
2022-12-18T13:56:33.838Z,100.00
2022-12-18T13:59:24.598Z,100.00
2022-12-18T14:01:53.660Z,100.00
2022-12-18T14:04:30.585Z,100.00
2022-12-18T14:07:05.415Z,100.00
2022-12-18T14:09:35.983Z,100.00
2022-12-18T14:12:22.260Z,100.00
2022-12-18T14:14:50.092Z,100.00
2022-12-18T14:17:19.874Z,100.00
2022-12-18T14:19:47.890Z,100.00
2022-12-18T14:22:16.262Z,100.00
2022-12-18T14:24:42.684Z,100.00
2022-12-18T14:27:24.999Z,100.00
2022-12-18T14:29:51.741Z,100.00
2022-12-18T14:32:19.522Z,100.00
2022-12-18T14:34:45.988Z,100.00
2022-12-18T14:37:15.844Z,100.00
2022-12-18T14:39:52.996Z,100.00
2022-12-18T14:42:19.362Z,100.00
2022-12-18T14:45:14.884Z,100.00
2022-12-18T14:47:32.101Z,100.00
2022-12-18T14:49:58.570Z,100.00
2022-12-18T14:52:28.801Z,100.00
2022-12-18T14:54:55.203Z,100.00
2022-12-18T14:57:25.385Z,100.00
2022-12-18T14:59:52.362Z,100.00
2022-12-18T15:02:23.842Z,100.00
2022-12-18T15:05:12.713Z,100.00
2022-12-18T15:07:46.743Z,100.00
2022-12-18T15:10:17.811Z,100.00
2022-12-18T15:12:48.172Z,100.00
2022-12-18T15:15:33.392Z,100.00
2022-12-18T15:18:03.054Z,100.00
2022-12-18T15:20:32.524Z,100.00
2022-12-18T15:22:59.063Z,100.00
2022-12-18T15:25:31.897Z,100.00
2022-12-18T15:27:58.421Z,100.00
2022-12-18T15:30:29.413Z,100.00
2022-12-18T15:33:14.867Z,100.00
2022-12-18T15:35:46.833Z,100.00
2022-12-18T15:38:13.858Z,100.00
2022-12-18T15:40:40.515Z,100.00
2022-12-18T15:43:27.783Z,100.00
2022-12-18T15:45:54.592Z,100.00
2022-12-18T15:48:23.879Z,100.00
2022-12-18T15:50:54.409Z,100.00
2022-12-18T15:53:22.047Z,100.00
2022-12-18T15:56:14.722Z,100.00
2022-12-18T15:58:41.336Z,100.00
2022-12-18T16:01:12.284Z,100.00
2022-12-18T16:03:41.569Z,100.00
2022-12-18T16:06:10.108Z,100.00
2022-12-18T16:08:36.674Z,100.00
2022-12-18T16:11:03.358Z,100.00
2022-12-18T16:13:29.928Z,100.00
2022-12-18T16:15:56.608Z,100.00
2022-12-18T16:18:23.258Z,100.00
2022-12-18T16:20:49.799Z,100.00
2022-12-18T16:23:16.395Z,100.00
2022-12-18T16:25:42.967Z,100.00
2022-12-18T16:28:09.401Z,100.00
2022-12-18T16:30:38.293Z,100.00
2022-12-18T16:33:05.756Z,100.00
2022-12-18T16:35:34.265Z,100.00
2022-12-18T16:38:00.716Z,100.00
2022-12-18T16:40:27.335Z,100.00
2022-12-18T16:42:53.887Z,100.00
2022-12-18T16:45:20.477Z,100.00
2022-12-18T16:47:46.964Z,100.00
2022-12-18T16:50:13.722Z,100.00
2022-12-18T16:52:40.727Z,100.00
2022-12-18T16:55:07.669Z,100.00
2022-12-18T16:57:34.511Z,100.00
2022-12-18T17:00:05.102Z,100.00
2022-12-18T17:02:32.868Z,100.00
2022-12-18T17:04:59.615Z,100.00
2022-12-18T17:07:27.234Z,100.00
2022-12-18T17:09:54.440Z,100.00
2022-12-18T17:12:21.158Z,100.00
2022-12-18T17:14:48.050Z,100.00
2022-12-18T17:17:23.547Z,100.00
2022-12-18T17:19:51.337Z,100.00
2022-12-18T17:22:17.996Z,100.00
2022-12-18T17:24:44.534Z,100.00
2022-12-18T17:27:13.594Z,100.00
2022-12-18T17:29:45.367Z,100.00
2022-12-18T17:32:13.402Z,100.00
2022-12-18T17:34:40.059Z,100.00
2022-12-18T17:37:06.511Z,100.00
2022-12-18T17:39:36.319Z,100.00
2022-12-18T17:42:02.940Z,100.00
2022-12-18T17:44:29.629Z,100.00
2022-12-18T17:46:56.279Z,100.00
2022-12-18T17:49:22.875Z,100.00
2022-12-18T17:51:49.857Z,100.00
2022-12-18T17:54:29.862Z,100.00
2022-12-18T17:56:57.403Z,100.00
2022-12-18T17:59:23.962Z,100.00
2022-12-18T18:01:50.565Z,100.00
2022-12-18T18:04:17.196Z,100.00
2022-12-18T18:09:24.380Z,100.00
2022-12-18T18:12:09.617Z,100.00
2022-12-18T18:14:36.431Z,100.00
2022-12-18T18:17:04.826Z,100.00
2022-12-18T18:19:31.988Z,100.00
2022-12-18T18:21:58.416Z,100.00
2022-12-18T18:24:25.856Z,100.00
2022-12-18T18:26:53.458Z,100.00
2022-12-18T18:29:31.903Z,100.00
2022-12-18T18:32:05.704Z,100.00
2022-12-18T18:34:35.502Z,100.00
2022-12-18T18:37:02.857Z,100.00
2022-12-18T18:39:29.950Z,100.00
2022-12-18T18:41:59.449Z,100.00
2022-12-18T18:44:38.711Z,100.00
2022-12-18T18:47:09.492Z,100.00
2022-12-18T18:49:36.193Z,100.00
2022-12-18T18:52:07.309Z,100.00
2022-12-18T18:54:36.347Z,100.00
2022-12-18T18:57:20.057Z,100.00
2022-12-18T18:59:47.480Z,100.00
2022-12-18T19:02:17.395Z,100.00
2022-12-18T19:04:46.298Z,100.00
2022-12-18T19:07:13.708Z,100.00
2022-12-18T19:09:43.873Z,100.00
2022-12-18T19:12:28.976Z,100.00
2022-12-18T19:14:55.688Z,100.00
2022-12-18T19:17:27.950Z,100.00
2022-12-18T19:19:56.241Z,100.00
2022-12-18T19:22:23.711Z,100.00
2022-12-18T19:24:50.584Z,100.00
2022-12-18T19:27:17.067Z,100.00
2022-12-18T19:29:46.060Z,100.00
2022-12-18T19:32:17.115Z,100.00
2022-12-18T19:34:43.569Z,100.00
2022-12-18T19:37:12.219Z,100.00
2022-12-18T19:39:50.369Z,100.00
2022-12-18T19:42:23.169Z,100.00
2022-12-18T19:44:52.045Z,100.00
2022-12-18T19:47:18.521Z,100.00
2022-12-18T19:49:44.931Z,100.00
2022-12-18T19:52:11.539Z,100.00
2022-12-18T19:54:38.084Z,99.93
2022-12-18T19:57:07.277Z,100.00
2022-12-18T19:59:34.951Z,99.62
2022-12-18T20:02:01.830Z,99.60
2022-12-18T20:04:28.568Z,99.52
2022-12-18T20:06:56.803Z,99.47
2022-12-18T20:09:23.700Z,99.29
2022-12-18T20:11:50.315Z,99.14
2022-12-18T20:14:22.856Z,99.19
2022-12-18T20:16:52.608Z,98.97
2022-12-18T20:19:22.519Z,98.79
2022-12-18T20:21:52.097Z,99.23
2022-12-18T20:24:18.723Z,98.43
2022-12-18T20:26:45.281Z,98.64
2022-12-18T20:29:11.767Z,98.30
2022-12-18T20:31:38.309Z,97.94
2022-12-18T20:34:06.054Z,98.05
2022-12-18T20:36:34.279Z,97.85
2022-12-18T20:39:03.900Z,97.70
2022-12-18T20:41:37.898Z,97.79
2022-12-18T20:44:06.008Z,98.24
2022-12-18T20:46:36.056Z,97.80
2022-12-18T20:49:03.697Z,98.06
2022-12-18T20:51:30.693Z,97.54
2022-12-18T20:54:00.089Z,97.27
2022-12-18T20:56:33.175Z,96.93
2022-12-18T20:59:00.323Z,97.24
2022-12-18T21:01:31.232Z,96.69
2022-12-18T21:03:57.810Z,96.24
2022-12-18T21:06:25.116Z,96.71
2022-12-18T21:08:51.524Z,96.48
2022-12-18T21:11:36.669Z,96.62
2022-12-18T21:14:04.329Z,96.81
2022-12-18T21:16:31.228Z,96.88
2022-12-18T21:18:57.974Z,96.67
2022-12-18T21:21:26.885Z,96.04
2022-12-18T21:23:53.953Z,96.10
2022-12-18T21:26:24.824Z,96.07
2022-12-18T21:28:58.143Z,96.01
2022-12-18T21:31:27.060Z,95.79
2022-12-18T21:33:58.381Z,95.18
2022-12-18T21:36:28.944Z,94.72
2022-12-18T21:38:55.917Z,95.17
2022-12-18T21:41:42.295Z,95.12
2022-12-18T21:44:10.907Z,94.95
2022-12-18T21:46:38.793Z,95.31
2022-12-18T21:49:05.994Z,95.55
2022-12-18T21:51:32.649Z,95.39
2022-12-18T21:53:59.493Z,94.97
2022-12-18T21:56:42.524Z,95.18
2022-12-18T21:59:09.059Z,95.08
2022-12-18T22:01:37.431Z,95.13
2022-12-18T22:04:04.455Z,94.77
2022-12-18T22:06:30.807Z,94.41
2022-12-18T22:08:57.222Z,94.62
2022-12-18T22:11:23.679Z,94.03
2022-12-18T22:13:50.122Z,94.42
2022-12-18T22:16:16.612Z,94.54
2022-12-18T22:18:43.016Z,94.87
2022-12-18T22:21:27.010Z,95.42
2022-12-18T22:24:02.597Z,94.96
2022-12-18T22:26:32.701Z,95.58
2022-12-18T22:29:20.244Z,94.31
2022-12-18T22:31:46.660Z,94.27
2022-12-18T22:34:13.320Z,94.37
2022-12-18T22:36:44.228Z,94.01
2022-12-18T22:39:26.771Z,94.68
2022-12-18T22:41:55.218Z,94.27
2022-12-18T22:44:21.661Z,94.42
2022-12-18T22:46:55.850Z,93.90
2022-12-18T22:49:34.715Z,93.25
2022-12-18T22:52:01.690Z,92.73
2022-12-18T22:54:28.126Z,93.00
2022-12-18T22:56:54.446Z,92.19
2022-12-18T22:59:22.708Z,92.25
2022-12-18T23:01:49.895Z,91.71
2022-12-18T23:04:17.515Z,92.46
2022-12-18T23:06:44.438Z,92.16
2022-12-18T23:09:14.003Z,92.31
2022-12-18T23:11:40.405Z,92.57
2022-12-18T23:14:06.835Z,92.65
2022-12-18T23:16:33.263Z,92.96
2022-12-18T23:18:59.737Z,92.76
2022-12-18T23:21:26.141Z,92.27
2022-12-18T23:23:53.979Z,92.11
2022-12-18T23:26:24.508Z,92.57
2022-12-18T23:28:51.500Z,92.30
2022-12-18T23:31:19.874Z,91.43
2022-12-18T23:33:46.910Z,91.21
2022-12-18T23:36:14.768Z,90.92
2022-12-18T23:38:41.678Z,91.13
2022-12-18T23:41:10.384Z,91.20
2022-12-18T23:43:37.604Z,91.22
2022-12-18T23:46:09.525Z,91.96
2022-12-18T23:48:35.929Z,91.88
2022-12-18T23:51:06.642Z,90.81
2022-12-18T23:53:33.017Z,90.63
2022-12-18T23:55:59.758Z,90.93
2022-12-18T23:58:26.090Z,90.95
